[INFO] 07.12.2011  8:41:53.000[HOBD]  HOBD 1.0.1 08.09.2011  13:39 
[INFO] 07.12.2011  8:41:53.000[HOBD]  Env: 2.0.50727.3615
[INFO] 07.12.2011  8:41:54.703[HOBD]  SN: 6C2FE9F-44C0F37C-FBFF
[INFO] 07.12.2011  8:41:58.625[HOBD]  Vehicle: kuzya
[TRACE] 07.12.2011  8:41:58.640[HOBD]  RegisterProvider: hobd.OBD2Sensors
[TRACE] 07.12.2011  8:41:58.718[HOBD]  RegisterProvider: hobd.ELMSensors
[TRACE] 07.12.2011  8:41:58.718[HOBD]  RegisterProvider: hobd.EngineLoadSensors
[INFO ] 07.12.2011  8:41:58.781[LitersPerHourSensor]  Using default coefficient
[TRACE] 07.12.2011  8:41:58.796[HOBD]  RegisterProvider: hobd.CommonSensors
[TRACE] 07.12.2011  8:41:58.812[FCS]  lph: EngineLoad.LitersPerHour
[TRACE] 07.12.2011  8:41:58.859[FCS]  lph: EngineLoad.LitersPerHour
[TRACE] 07.12.2011  8:41:58.859[FCS]  lph: EngineLoad.LitersPerHour
[TRACE] 07.12.2011  8:41:58.875[HOBD]  Connecting stream: COM11
[INFO] 07.12.2011  8:41:58.890[HOBD]  system width: 1024, height: 768
[INFO] 07.12.2011  8:41:58.890[HOBD]  wa width: 1024, wa height: 734
[TRACE] 07.12.2011  8:41:59.093[HomePage]  tap distance 33
[INFO] 07.12.2011  8:41:59.109[HomePage]  System DPI: 120
[INFO] 07.12.2011  8:41:59.109[HomePage]  App DPI: 56
[INFO] 07.12.2011  8:41:59.109[HomePage]  layout: 477x342
[INFO] 07.12.2011  8:41:59.109[HomePage]  form: 160x29
[ERROR] 07.12.2011  8:41:59.546[HomePage]  no layout file user.layout
[TRACE] 07.12.2011  8:42:00.921[OBD2Engine]   -> INIT
[INFO ] 07.12.2011  8:42:00.921[OBD2Engine]  Open COM11
[TRACE] 07.12.2011  8:42:01.031[SerialStream]  Port COM11 baud  parity  hs 
[TRACE] 07.12.2011  8:42:01.109[OBD2Engine]   -> ATZ
[TRACE] 07.12.2011  8:42:01.109[OBD2Engine]  SendCommand:ATZ
[TRACE] 07.12.2011  8:42:01.953[OBD2Engine]  Sleeping 25 ms
[TRACE] 07.12.2011  8:42:01.984[OBD2Engine]  HandleReply: ELM327 v1.4
[TRACE] 07.12.2011  8:42:01.984[OBD2Engine]  SendCommand:ATZ
[TRACE] 07.12.2011  8:42:02.046[OBD2Engine]  Sleeping 25 ms
[TRACE] 07.12.2011  8:42:02.796[OBD2Engine]  Sleeping 25 ms
[TRACE] 07.12.2011  8:42:02.828[OBD2Engine]  HandleReply: ATZ


ELM327 v1.4
[INFO] 07.12.2011  8:42:02.828[OBD2Engine]  VersionInfo: ELM327 v1.4
[TRACE] 07.12.2011  8:42:02.828[OBD2Engine]   -> ATE0
[TRACE] 07.12.2011  8:42:02.828[OBD2Engine]  SendCommand:ATE0
[TRACE] 07.12.2011  8:42:02.890[OBD2Engine]  Sleeping 25 ms
[TRACE] 07.12.2011  8:42:02.921[OBD2Engine]  HandleReply: ATE0
OK
[TRACE] 07.12.2011  8:42:02.921[OBD2Engine]   -> ATL0
[TRACE] 07.12.2011  8:42:02.921[OBD2Engine]  SendCommand:ATL0
[TRACE] 07.12.2011  8:42:02.984[OBD2Engine]  Sleeping 25 ms
[TRACE] 07.12.2011  8:42:03.015[OBD2Engine]  HandleReply: OK
[TRACE] 07.12.2011  8:42:03.015[OBD2Engine]   -> EXTRAINIT
[TRACE] 07.12.2011  8:42:03.015[OBD2Engine]  SendCommand:1011
[TRACE] 07.12.2011  8:42:03.140[OBD2Engine]  Sleeping 25 ms
[TRACE] 07.12.2011  8:42:03.171[OBD2Engine]  Sleeping 25 ms
[TRACE] 07.12.2011  8:42:03.546[OBD2Engine]  Sleeping 25 ms
[TRACE] 07.12.2011  8:42:03.578[OBD2Engine]  HandleReply: SEARCHING...
NO DATA
[TRACE] 07.12.2011  8:42:03.578[OBD2Engine]   -> EXTRAINIT
[TRACE] 07.12.2011  8:42:03.578[OBD2Engine]  SendCommand:0120
[TRACE] 07.12.2011  8:42:03.640[OBD2Engine]  Sleeping 25 ms
[TRACE] 07.12.2011  8:42:03.796[OBD2Engine]  Sleeping 25 ms
[TRACE] 07.12.2011  8:42:03.828[OBD2Engine]  HandleReply: 41 20 A0 19 A0 01
[TRACE] 07.12.2011  8:42:03.828[OBD2Engine]   -> EXTRAINIT
[TRACE] 07.12.2011  8:42:03.828[OBD2Engine]  SendCommand:0140
[TRACE] 07.12.2011  8:42:03.890[OBD2Engine]  Sleeping 25 ms
[TRACE] 07.12.2011  8:42:04.031[OBD2Engine]  Sleeping 25 ms
[TRACE] 07.12.2011  8:42:04.062[OBD2Engine]  HandleReply: 41 40 48 DC 00 00
[TRACE] 07.12.2011  8:42:04.062[OBD2Engine]   -> EXTRAINIT
[TRACE] 07.12.2011  8:42:04.062[OBD2Engine]   -> SENSOR_INIT
[TRACE] 07.12.2011  8:42:04.062[OBD2Engine]  SendCommand:0100
[TRACE] 07.12.2011  8:42:04.125[OBD2Engine]  Sleeping 25 ms
[TRACE] 07.12.2011  8:42:04.156[OBD2Engine]  Sleeping 25 ms
[TRACE] 07.12.2011  8:42:04.265[OBD2Engine]  Sleeping 25 ms
[TRACE] 07.12.2011  8:42:04.296[OBD2Engine]  HandleReply: 41 00 88 3B 80 13
[INFO] 07.12.2011  8:42:04.296[OBD2Engine]  Sensor Init:41 00 88 3B 80 13 

[TRACE] 07.12.2011  8:42:04.296[OBD2Engine]   -> QUERY_PROTOCOL
[TRACE] 07.12.2011  8:42:04.296[OBD2Engine]  SendCommand:ATDPN
[TRACE] 07.12.2011  8:42:04.359[OBD2Engine]  Sleeping 25 ms
[TRACE] 07.12.2011  8:42:04.390[OBD2Engine]  HandleReply: A6
[INFO] 07.12.2011  8:42:04.390[OBD2Engine]  ProtocolId: 6
[TRACE] 07.12.2011  8:42:04.390[OBD2Engine]   -> SENSOR
[TRACE] 07.12.2011  8:42:04.390[OBD2Engine]   ----> OBD2.Speed
[TRACE] 07.12.2011  8:42:04.390[OBD2Engine]  SendCommand:010D
[TRACE] 07.12.2011  8:42:04.390[OBD2Engine]   -> SENSOR_ACK
[TRACE] 07.12.2011  8:42:04.578[OBD2Engine]  Sleeping 25 ms
[TRACE] 07.12.2011  8:42:04.609[OBD2Engine]  Sleeping 25 ms
[TRACE] 07.12.2011  8:42:04.640[OBD2Engine]  HandleReply: 41 0D 00
[TRACE] 07.12.2011  8:42:04.640[OBD2Engine]   -> SENSOR
[TRACE] 07.12.2011  8:42:04.640[OBD2Engine]   ----> OBD2.EngineLoad
[TRACE] 07.12.2011  8:42:04.640[OBD2Engine]  SendCommand:0104
[TRACE] 07.12.2011  8:42:04.640[OBD2Engine]   -> SENSOR_ACK
[TRACE] 07.12.2011  8:42:04.890[OBD2Engine]  Sleeping 25 ms
[TRACE] 07.12.2011  8:42:04.921[OBD2Engine]  HandleReply: NO DATA
[TRACE] 07.12.2011  8:42:04.921[OBD2Engine]   -> SENSOR
[TRACE] 07.12.2011  8:42:04.921[OBD2Engine]   ----> OBD2.RPM
[TRACE] 07.12.2011  8:42:04.921[OBD2Engine]  SendCommand:010C
[TRACE] 07.12.2011  8:42:04.921[OBD2Engine]   -> SENSOR_ACK
[INFO ] 07.12.2011  8:42:04.921[OBD2Engine]  sensor not responding, increasing period: OBD2.EngineLoad
[TRACE] 07.12.2011  8:42:04.984[OBD2Engine]  Sleeping 25 ms
[TRACE] 07.12.2011  8:42:05.015[OBD2Engine]  Sleeping 25 ms
[TRACE] 07.12.2011  8:42:05.046[OBD2Engine]  HandleReply: 41 0C 0A F4
[TRACE] 07.12.2011  8:42:05.046[OBD2Engine]   -> SENSOR
[TRACE] 07.12.2011  8:42:05.046[OBD2Engine]   ----> OBD2.CoolantTemp
[TRACE] 07.12.2011  8:42:05.046[OBD2Engine]  SendCommand:0105
[TRACE] 07.12.2011  8:42:05.046[OBD2Engine]   -> SENSOR_ACK
[TRACE] 07.12.2011  8:42:05.109[OBD2Engine]  Sleeping 25 ms
[TRACE] 07.12.2011  8:42:05.140[OBD2Engine]  Sleeping 25 ms
[TRACE] 07.12.2011  8:42:05.171[OBD2Engine]  HandleReply: 41 05 7F
[TRACE] 07.12.2011  8:42:05.171[OBD2Engine]   -> SENSOR
[TRACE] 07.12.2011  8:42:05.171[OBD2Engine]   ----> OBD2.LTFT1
[TRACE] 07.12.2011  8:42:05.171[OBD2Engine]  SendCommand:0107
[TRACE] 07.12.2011  8:42:05.171[OBD2Engine]   -> SENSOR_ACK
[TRACE] 07.12.2011  8:42:05.421[OBD2Engine]  Sleeping 25 ms
[TRACE] 07.12.2011  8:42:05.453[OBD2Engine]  HandleReply: NO DATA
[TRACE] 07.12.2011  8:42:05.453[OBD2Engine]   -> SENSOR
[TRACE] 07.12.2011  8:42:05.453[OBD2Engine]   ----> OBD2.LTFT2
[TRACE] 07.12.2011  8:42:05.453[OBD2Engine]  SendCommand:0109
[TRACE] 07.12.2011  8:42:05.453[OBD2Engine]   -> SENSOR_ACK
[INFO ] 07.12.2011  8:42:05.453[OBD2Engine]  sensor not responding, increasing period: OBD2.LTFT1
[TRACE] 07.12.2011  8:42:05.703[OBD2Engine]  Sleeping 25 ms
[TRACE] 07.12.2011  8:42:05.734[OBD2Engine]  HandleReply: NO DATA
[TRACE] 07.12.2011  8:42:05.734[OBD2Engine]   -> SENSOR
[TRACE] 07.12.2011  8:42:05.734[OBD2Engine]   ----> OBD2.MIL
[TRACE] 07.12.2011  8:42:05.734[OBD2Engine]  SendCommand:03
[TRACE] 07.12.2011  8:42:05.734[OBD2Engine]   -> SENSOR_ACK
[TRACE] 07.12.2011  8:42:05.796[OBD2Engine]  Sleeping 25 ms
[TRACE] 07.12.2011  8:42:05.828[OBD2Engine]  Sleeping 25 ms
[TRACE] 07.12.2011  8:42:05.859[OBD2Engine]  HandleReply: 43 00
[TRACE] 07.12.2011  8:42:05.859[OBD2Engine]   -> SENSOR
[TRACE] 07.12.2011  8:42:05.859[OBD2Engine]   ----> OBD2.PMIL
[TRACE] 07.12.2011  8:42:05.859[OBD2Engine]  SendCommand:07
[TRACE] 07.12.2011  8:42:05.859[OBD2Engine]   -> SENSOR_ACK
[ERROR] 07.12.2011  8:42:05.859[MILTrace]  dataraw: 43 00 
[TRACE] 07.12.2011  8:42:05.921[OBD2Engine]  Sleeping 25 ms
[TRACE] 07.12.2011  8:42:05.953[OBD2Engine]  Sleeping 25 ms
[TRACE] 07.12.2011  8:42:05.984[OBD2Engine]  HandleReply: 47 00
[TRACE] 07.12.2011  8:42:05.984[OBD2Engine]   -> SENSOR
[TRACE] 07.12.2011  8:42:05.984[OBD2Engine]   ----> ELM.BatteryVoltage
[TRACE] 07.12.2011  8:42:05.984[OBD2Engine]  SendCommand:ATRV
[TRACE] 07.12.2011  8:42:05.984[OBD2Engine]   -> SENSOR_ACK
[ERROR] 07.12.2011  8:42:05.984[MILTrace]  dataraw: 47 00 
[TRACE] 07.12.2011  8:42:06.046[OBD2Engine]  Sleeping 25 ms
[TRACE] 07.12.2011  8:42:06.078[OBD2Engine]  HandleReply: 13.9V
[TRACE] 07.12.2011  8:42:06.078[OBD2Engine]   -> SENSOR
[TRACE] 07.12.2011  8:42:06.078[OBD2Engine]   ----> OBD2.IntakeAirTemp
[TRACE] 07.12.2011  8:42:06.078[OBD2Engine]  SendCommand:010F
[TRACE] 07.12.2011  8:42:06.078[OBD2Engine]   -> SENSOR_ACK
[TRACE] 07.12.2011  8:42:06.140[OBD2Engine]  Sleeping 25 ms
[TRACE] 07.12.2011  8:42:06.171[OBD2Engine]  Sleeping 25 ms
[TRACE] 07.12.2011  8:42:06.203[OBD2Engine]  HandleReply: 41 0F 3D
[TRACE] 07.12.2011  8:42:06.203[OBD2Engine]   -> SENSOR
[TRACE] 07.12.2011  8:42:06.203[OBD2Engine]   ----> OBD2.AirTemp
[TRACE] 07.12.2011  8:42:06.203[OBD2Engine]  SendCommand:0146
[TRACE] 07.12.2011  8:42:06.203[OBD2Engine]   -> SENSOR_ACK
[TRACE] 07.12.2011  8:42:06.453[OBD2Engine]  Sleeping 25 ms
[TRACE] 07.12.2011  8:42:06.484[OBD2Engine]  HandleReply: NO DATA
[TRACE] 07.12.2011  8:42:06.484[OBD2Engine]   -> SENSOR
[TRACE] 07.12.2011  8:42:06.484[OBD2Engine]   ----> OBD2.Speed
[TRACE] 07.12.2011  8:42:06.484[OBD2Engine]  SendCommand:010D
[TRACE] 07.12.2011  8:42:06.484[OBD2Engine]   -> SENSOR_ACK
[INFO ] 07.12.2011  8:42:06.484[OBD2Engine]  sensor not responding, increasing period: OBD2.AirTemp
[TRACE] 07.12.2011  8:42:06.546[OBD2Engine]  Sleeping 25 ms
[TRACE] 07.12.2011  8:42:06.578[OBD2Engine]  Sleeping 25 ms
[TRACE] 07.12.2011  8:42:06.609[OBD2Engine]  HandleReply: 41 0D 00
[TRACE] 07.12.2011  8:42:06.609[OBD2Engine]   -> SENSOR
[TRACE] 07.12.2011  8:42:06.609[OBD2Engine]   ----> OBD2.EngineLoad
[TRACE] 07.12.2011  8:42:06.609[OBD2Engine]  SendCommand:0104
[TRACE] 07.12.2011  8:42:06.609[OBD2Engine]   -> SENSOR_ACK
[TRACE] 07.12.2011  8:42:06.859[OBD2Engine]  Sleeping 25 ms
[TRACE] 07.12.2011  8:42:06.890[OBD2Engine]  HandleReply: NO DATA
[TRACE] 07.12.2011  8:42:06.890[OBD2Engine]   -> SENSOR
[TRACE] 07.12.2011  8:42:06.890[OBD2Engine]   ----> OBD2.RPM
[TRACE] 07.12.2011  8:42:06.890[OBD2Engine]  SendCommand:010C
[TRACE] 07.12.2011  8:42:06.890[OBD2Engine]   -> SENSOR_ACK
[INFO ] 07.12.2011  8:42:06.890[OBD2Engine]  sensor not responding, increasing period: OBD2.EngineLoad
[TRACE] 07.12.2011  8:42:06.953[OBD2Engine]  Sleeping 25 ms
[TRACE] 07.12.2011  8:42:06.984[OBD2Engine]  Sleeping 25 ms
[TRACE] 07.12.2011  8:42:07.015[OBD2Engine]  HandleReply: 41 0C 0A F3
[TRACE] 07.12.2011  8:42:07.015[OBD2Engine]   -> SENSOR
[TRACE] 07.12.2011  8:42:07.015[OBD2Engine]   ----> OBD2.Speed
[TRACE] 07.12.2011  8:42:07.015[OBD2Engine]  SendCommand:010D
[TRACE] 07.12.2011  8:42:07.015[OBD2Engine]   -> SENSOR_ACK
[TRACE] 07.12.2011  8:42:07.078[OBD2Engine]  Sleeping 25 ms
[TRACE] 07.12.2011  8:42:07.109[OBD2Engine]  Sleeping 25 ms
[TRACE] 07.12.2011  8:42:07.140[OBD2Engine]  HandleReply: 41 0D 00
[TRACE] 07.12.2011  8:42:07.140[OBD2Engine]   -> SENSOR
[TRACE] 07.12.2011  8:42:07.140[OBD2Engine]   ----> OBD2.EngineLoad
[TRACE] 07.12.2011  8:42:07.140[OBD2Engine]  SendCommand:0104
[TRACE] 07.12.2011  8:42:07.140[OBD2Engine]   -> SENSOR_ACK
[TRACE] 07.12.2011  8:42:07.390[OBD2Engine]  Sleeping 25 ms
[TRACE] 07.12.2011  8:42:07.421[OBD2Engine]  Sleeping 25 ms
[TRACE] 07.12.2011  8:42:07.453[OBD2Engine]  HandleReply: NO DATA
[TRACE] 07.12.2011  8:42:07.453[OBD2Engine]   -> SENSOR
[TRACE] 07.12.2011  8:42:07.453[OBD2Engine]   ----> OBD2.RPM
[TRACE] 07.12.2011  8:42:07.453[OBD2Engine]  SendCommand:010C
[TRACE] 07.12.2011  8:42:07.453[OBD2Engine]   -> SENSOR_ACK
[INFO ] 07.12.2011  8:42:07.453[OBD2Engine]  sensor not responding, increasing period: OBD2.EngineLoad
[TRACE] 07.12.2011  8:42:07.515[OBD2Engine]  Sleeping 25 ms
[TRACE] 07.12.2011  8:42:07.546[OBD2Engine]  Sleeping 25 ms
[TRACE] 07.12.2011  8:42:07.578[OBD2Engine]  HandleReply: 41 0C 0A EB
[TRACE] 07.12.2011  8:42:07.578[OBD2Engine]   -> SENSOR
[TRACE] 07.12.2011  8:42:07.578[OBD2Engine]   ----> OBD2.Speed
[TRACE] 07.12.2011  8:42:07.578[OBD2Engine]  SendCommand:010D
[TRACE] 07.12.2011  8:42:07.578[OBD2Engine]   -> SENSOR_ACK
[TRACE] 07.12.2011  8:42:07.640[OBD2Engine]  Sleeping 25 ms
[TRACE] 07.12.2011  8:42:07.671[OBD2Engine]  Sleeping 25 ms
[TRACE] 07.12.2011  8:42:07.703[OBD2Engine]  HandleReply: 41 0D 00
[TRACE] 07.12.2011  8:42:07.703[OBD2Engine]   -> SENSOR
[TRACE] 07.12.2011  8:42:07.703[OBD2Engine]   ----> OBD2.RPM
[TRACE] 07.12.2011  8:42:07.703[OBD2Engine]  SendCommand:010C
[TRACE] 07.12.2011  8:42:07.703[OBD2Engine]   -> SENSOR_ACK
[TRACE] 07.12.2011  8:42:07.765[OBD2Engine]  Sleeping 25 ms
[TRACE] 07.12.2011  8:42:07.796[OBD2Engine]  Sleeping 25 ms
[TRACE] 07.12.2011  8:42:07.828[OBD2Engine]  HandleReply: 41 0C 0A F6
[TRACE] 07.12.2011  8:42:07.828[OBD2Engine]   -> SENSOR
[TRACE] 07.12.2011  8:42:07.828[OBD2Engine]   ----> OBD2.Speed
[TRACE] 07.12.2011  8:42:07.828[OBD2Engine]  SendCommand:010D
[TRACE] 07.12.2011  8:42:07.828[OBD2Engine]   -> SENSOR_ACK
[TRACE] 07.12.2011  8:42:07.890[OBD2Engine]  Sleeping 25 ms
[TRACE] 07.12.2011  8:42:07.921[OBD2Engine]  Sleeping 25 ms
[TRACE] 07.12.2011  8:42:07.953[OBD2Engine]  HandleReply: 41 0D 00
[TRACE] 07.12.2011  8:42:07.953[OBD2Engine]   -> SENSOR
[TRACE] 07.12.2011  8:42:07.953[OBD2Engine]   ----> OBD2.RPM
[TRACE] 07.12.2011  8:42:07.953[OBD2Engine]  SendCommand:010C
[TRACE] 07.12.2011  8:42:07.953[OBD2Engine]   -> SENSOR_ACK
[TRACE] 07.12.2011  8:42:08.015[OBD2Engine]  Sleeping 25 ms
[TRACE] 07.12.2011  8:42:08.046[OBD2Engine]  Sleeping 25 ms
[TRACE] 07.12.2011  8:42:08.078[OBD2Engine]  HandleReply: 41 0C 0A F3
[TRACE] 07.12.2011  8:42:08.078[OBD2Engine]   -> SENSOR
[TRACE] 07.12.2011  8:42:08.078[OBD2Engine]   ----> OBD2.Speed
[TRACE] 07.12.2011  8:42:08.078[OBD2Engine]  SendCommand:010D
[TRACE] 07.12.2011  8:42:08.078[OBD2Engine]   -> SENSOR_ACK
[TRACE] 07.12.2011  8:42:08.140[OBD2Engine]  Sleeping 25 ms
[TRACE] 07.12.2011  8:42:08.171[OBD2Engine]  Sleeping 25 ms
[TRACE] 07.12.2011  8:42:08.203[OBD2Engine]  Sleeping 25 ms
[TRACE] 07.12.2011  8:42:08.234[OBD2Engine]  HandleReply: 41 0D 00
[TRACE] 07.12.2011  8:42:08.234[OBD2Engine]   -> SENSOR
[TRACE] 07.12.2011  8:42:08.234[OBD2Engine]   ----> OBD2.EngineLoad
[TRACE] 07.12.2011  8:42:08.234[OBD2Engine]  SendCommand:0104
[TRACE] 07.12.2011  8:42:08.234[OBD2Engine]   -> SENSOR_ACK
[TRACE] 07.12.2011  8:42:08.484[OBD2Engine]  Sleeping 25 ms
[TRACE] 07.12.2011  8:42:08.515[OBD2Engine]  HandleReply: NO DATA
[TRACE] 07.12.2011  8:42:08.515[OBD2Engine]   -> SENSOR
[TRACE] 07.12.2011  8:42:08.515[OBD2Engine]   ----> OBD2.RPM
[TRACE] 07.12.2011  8:42:08.515[OBD2Engine]  SendCommand:010C
[TRACE] 07.12.2011  8:42:08.515[OBD2Engine]   -> SENSOR_ACK
[INFO ] 07.12.2011  8:42:08.515[OBD2Engine]  sensor not responding, increasing period: OBD2.EngineLoad
[TRACE] 07.12.2011  8:42:08.578[OBD2Engine]  Sleeping 25 ms
[TRACE] 07.12.2011  8:42:08.609[OBD2Engine]  Sleeping 25 ms
[TRACE] 07.12.2011  8:42:08.640[OBD2Engine]  HandleReply: 41 0C 0A EA
[TRACE] 07.12.2011  8:42:08.640[OBD2Engine]   -> SENSOR
[TRACE] 07.12.2011  8:42:08.640[OBD2Engine]   ----> OBD2.Speed
[TRACE] 07.12.2011  8:42:08.640[OBD2Engine]  SendCommand:010D
[TRACE] 07.12.2011  8:42:08.640[OBD2Engine]   -> SENSOR_ACK
[TRACE] 07.12.2011  8:42:08.703[OBD2Engine]  Sleeping 25 ms
[TRACE] 07.12.2011  8:42:08.734[OBD2Engine]  Sleeping 25 ms
[TRACE] 07.12.2011  8:42:08.765[OBD2Engine]  HandleReply: 41 0D 00
[TRACE] 07.12.2011  8:42:08.765[OBD2Engine]   -> SENSOR
[TRACE] 07.12.2011  8:42:08.765[OBD2Engine]   ----> OBD2.RPM
[TRACE] 07.12.2011  8:42:08.765[OBD2Engine]  SendCommand:010C
[TRACE] 07.12.2011  8:42:08.765[OBD2Engine]   -> SENSOR_ACK
[TRACE] 07.12.2011  8:42:08.828[OBD2Engine]  Sleeping 25 ms
[TRACE] 07.12.2011  8:42:08.859[OBD2Engine]  Sleeping 25 ms
[TRACE] 07.12.2011  8:42:08.890[OBD2Engine]  Sleeping 25 ms
[TRACE] 07.12.2011  8:42:08.921[OBD2Engine]  HandleReply: 41 0C 0A E2
[TRACE] 07.12.2011  8:42:08.921[OBD2Engine]   -> SENSOR
[TRACE] 07.12.2011  8:42:08.921[OBD2Engine]   ----> OBD2.Speed
[TRACE] 07.12.2011  8:42:08.921[OBD2Engine]  SendCommand:010D
[TRACE] 07.12.2011  8:42:08.921[OBD2Engine]   -> SENSOR_ACK
[TRACE] 07.12.2011  8:42:08.984[OBD2Engine]  Sleeping 25 ms
[TRACE] 07.12.2011  8:42:09.015[OBD2Engine]  Sleeping 25 ms
[TRACE] 07.12.2011  8:42:09.046[OBD2Engine]  HandleReply: 41 0D 00
[TRACE] 07.12.2011  8:42:09.046[OBD2Engine]   -> SENSOR
[TRACE] 07.12.2011  8:42:09.046[OBD2Engine]   ----> OBD2.RPM
[TRACE] 07.12.2011  8:42:09.046[OBD2Engine]  SendCommand:010C
[TRACE] 07.12.2011  8:42:09.046[OBD2Engine]   -> SENSOR_ACK
[TRACE] 07.12.2011  8:42:09.109[OBD2Engine]  Sleeping 25 ms
[TRACE] 07.12.2011  8:42:09.140[OBD2Engine]  Sleeping 25 ms
[TRACE] 07.12.2011  8:42:09.171[OBD2Engine]  HandleReply: 41 0C 0A F2
[TRACE] 07.12.2011  8:42:09.171[OBD2Engine]   -> SENSOR
[TRACE] 07.12.2011  8:42:09.171[OBD2Engine]   ----> OBD2.Speed
[TRACE] 07.12.2011  8:42:09.171[OBD2Engine]  SendCommand:010D
[TRACE] 07.12.2011  8:42:09.171[OBD2Engine]   -> SENSOR_ACK
[TRACE] 07.12.2011  8:42:09.234[OBD2Engine]  Sleeping 25 ms
[TRACE] 07.12.2011  8:42:09.265[OBD2Engine]  Sleeping 25 ms
[TRACE] 07.12.2011  8:42:09.296[OBD2Engine]  HandleReply: 41 0D 00
[TRACE] 07.12.2011  8:42:09.296[OBD2Engine]   -> SENSOR
[TRACE] 07.12.2011  8:42:09.296[OBD2Engine]   ----> OBD2.RPM
[TRACE] 07.12.2011  8:42:09.296[OBD2Engine]  SendCommand:010C
[TRACE] 07.12.2011  8:42:09.296[OBD2Engine]   -> SENSOR_ACK
[TRACE] 07.12.2011  8:42:09.359[OBD2Engine]  Sleeping 25 ms
[TRACE] 07.12.2011  8:42:09.390[OBD2Engine]  Sleeping 25 ms
[TRACE] 07.12.2011  8:42:09.421[OBD2Engine]  HandleReply: 41 0C 0A E9
[TRACE] 07.12.2011  8:42:09.421[OBD2Engine]   -> SENSOR
[TRACE] 07.12.2011  8:42:09.421[OBD2Engine]   ----> OBD2.Speed
[TRACE] 07.12.2011  8:42:09.421[OBD2Engine]  SendCommand:010D
[TRACE] 07.12.2011  8:42:09.421[OBD2Engine]   -> SENSOR_ACK
[TRACE] 07.12.2011  8:42:09.484[OBD2Engine]  Sleeping 25 ms
[TRACE] 07.12.2011  8:42:09.515[OBD2Engine]  Sleeping 25 ms
[TRACE] 07.12.2011  8:42:09.546[OBD2Engine]  HandleReply: 41 0D 00
[TRACE] 07.12.2011  8:42:09.546[OBD2Engine]   -> SENSOR
[TRACE] 07.12.2011  8:42:09.546[OBD2Engine]   ----> OBD2.RPM
[TRACE] 07.12.2011  8:42:09.546[OBD2Engine]  SendCommand:010C
[TRACE] 07.12.2011  8:42:09.546[OBD2Engine]   -> SENSOR_ACK
[TRACE] 07.12.2011  8:42:09.609[OBD2Engine]  Sleeping 25 ms
[TRACE] 07.12.2011  8:42:09.640[OBD2Engine]  Sleeping 25 ms
[TRACE] 07.12.2011  8:42:09.671[OBD2Engine]  HandleReply: 41 0C 0A F5
[TRACE] 07.12.2011  8:42:09.671[OBD2Engine]   -> SENSOR
[TRACE] 07.12.2011  8:42:09.671[OBD2Engine]   ----> OBD2.Speed
[TRACE] 07.12.2011  8:42:09.671[OBD2Engine]  SendCommand:010D
[TRACE] 07.12.2011  8:42:09.671[OBD2Engine]   -> SENSOR_ACK
[TRACE] 07.12.2011  8:42:09.734[OBD2Engine]  Sleeping 25 ms
[TRACE] 07.12.2011  8:42:09.765[OBD2Engine]  Sleeping 25 ms
[TRACE] 07.12.2011  8:42:09.796[OBD2Engine]  HandleReply: 41 0D 00
[TRACE] 07.12.2011  8:42:09.796[OBD2Engine]   -> SENSOR
[TRACE] 07.12.2011  8:42:09.796[OBD2Engine]   ----> OBD2.RPM
[TRACE] 07.12.2011  8:42:09.796[OBD2Engine]  SendCommand:010C
[TRACE] 07.12.2011  8:42:09.796[OBD2Engine]   -> SENSOR_ACK
[TRACE] 07.12.2011  8:42:09.859[OBD2Engine]  Sleeping 25 ms
[TRACE] 07.12.2011  8:42:09.890[OBD2Engine]  Sleeping 25 ms
[TRACE] 07.12.2011  8:42:09.921[OBD2Engine]  HandleReply: 41 0C 0A E5
[TRACE] 07.12.2011  8:42:09.921[OBD2Engine]   -> SENSOR
[TRACE] 07.12.2011  8:42:09.921[OBD2Engine]   ----> OBD2.Speed
[TRACE] 07.12.2011  8:42:09.921[OBD2Engine]  SendCommand:010D
[TRACE] 07.12.2011  8:42:09.921[OBD2Engine]   -> SENSOR_ACK
[TRACE] 07.12.2011  8:42:09.984[OBD2Engine]  Sleeping 25 ms
[TRACE] 07.12.2011  8:42:10.015[OBD2Engine]  Sleeping 25 ms
[TRACE] 07.12.2011  8:42:10.046[OBD2Engine]  HandleReply: 41 0D 00
[TRACE] 07.12.2011  8:42:10.046[OBD2Engine]   -> SENSOR
[TRACE] 07.12.2011  8:42:10.046[OBD2Engine]   ----> OBD2.EngineLoad
[TRACE] 07.12.2011  8:42:10.046[OBD2Engine]  SendCommand:0104
[TRACE] 07.12.2011  8:42:10.093[OBD2Engine]   -> SENSOR_ACK
[INFO ] 07.12.2011  8:42:10.187[HOBD]  app exit
